Terminal Aerodrome Forecast
Issued by NWS Corpus Christi, TX

Home | Current Version | Previous Version | Text Only | Print | Product List | Glossary On
Versions: 1 2 3 4 5 6 7 8 9 10 11 12
000
FTUS44 KCRP 011700 RRA
TAFCRP
TAF
KCRP 011741Z 0118/0218 20005KT P6SM SCT035 BKN050
     FM012000 11012KT P6SM VCTS BKN035CB OVC100
      TEMPO 0122/0202 VRB15G25KT TSRA OVC030CB
     FM020300 11009KT P6SM SCT040 BKN100
     FM020700 VRB03KT P6SM BKN025
     FM021500 VRB05KT P6SM VCTS BKN030CB PROB30 0215/0218 VRB15G25KT
      TSRA OVC025CB=

USA.gov is the U.S. government's official web portal to all federal, state and local government web resources and services.